sensor_id;sensor_type;location;lat;lon;timestamp;P1;durP1;ratioP1;P2;durP2;ratioP2
65831;SDS011;52593;42.648;23.332;2023-09-30T00:00:42;10.63;;;3.20;;
65831;SDS011;52593;42.648;23.332;2023-09-30T00:03:07;7.93;;;3.25;;
65831;SDS011;52593;42.648;23.332;2023-09-30T00:05:34;9.38;;;3.50;;
65831;SDS011;52593;42.648;23.332;2023-09-30T00:07:59;7.57;;;2.97;;
65831;SDS011;52593;42.648;23.332;2023-09-30T00:10:25;7.67;;;3.30;;
65831;SDS011;52593;42.648;23.332;2023-09-30T00:12:50;7.43;;;3.03;;
65831;SDS011;52593;42.648;23.332;2023-09-30T00:15:16;7.88;;;3.35;;
65831;SDS011;52593;42.648;23.332;2023-09-30T00:17:41;7.33;;;2.70;;
65831;SDS011;52593;42.648;23.332;2023-09-30T00:20:07;8.03;;;3.10;;
65831;SDS011;52593;42.648;23.332;2023-09-30T00:22:33;10.25;;;3.53;;
65831;SDS011;52593;42.648;23.332;2023-09-30T00:24:58;8.77;;;3.37;;
65831;SDS011;52593;42.648;23.332;2023-09-30T00:27:24;8.33;;;3.07;;
65831;SDS011;52593;42.648;23.332;2023-09-30T00:29:49;7.87;;;3.17;;
65831;SDS011;52593;42.648;23.332;2023-09-30T00:32:15;9.07;;;3.28;;
65831;SDS011;52593;42.648;23.332;2023-09-30T00:34:40;8.73;;;3.50;;
65831;SDS011;52593;42.648;23.332;2023-09-30T00:37:05;8.50;;;3.30;;
65831;SDS011;52593;42.648;23.332;2023-09-30T00:39:32;9.20;;;3.50;;
65831;SDS011;52593;42.648;23.332;2023-09-30T00:41:58;8.80;;;3.35;;
65831;SDS011;52593;42.648;23.332;2023-09-30T00:44:24;7.72;;;3.30;;
65831;SDS011;52593;42.648;23.332;2023-09-30T00:46:50;10.43;;;3.60;;
65831;SDS011;52593;42.648;23.332;2023-09-30T00:49:16;7.70;;;3.17;;
65831;SDS011;52593;42.648;23.332;2023-09-30T00:51:43;7.68;;;3.20;;
65831;SDS011;52593;42.648;23.332;2023-09-30T00:54:10;8.90;;;2.92;;
65831;SDS011;52593;42.648;23.332;2023-09-30T00:56:37;7.83;;;3.30;;
65831;SDS011;52593;42.648;23.332;2023-09-30T00:59:08;7.60;;;3.35;;
65831;SDS011;52593;42.648;23.332;2023-09-30T01:01:34;7.80;;;3.47;;
65831;SDS011;52593;42.648;23.332;2023-09-30T01:04:00;8.70;;;3.15;;
65831;SDS011;52593;42.648;23.332;2023-09-30T01:06:26;6.82;;;3.03;;
65831;SDS011;52593;42.648;23.332;2023-09-30T01:08:52;10.33;;;3.37;;
65831;SDS011;52593;42.648;23.332;2023-09-30T01:11:17;8.32;;;3.30;;
65831;SDS011;52593;42.648;23.332;2023-09-30T01:13:43;9.73;;;3.92;;
65831;SDS011;52593;42.648;23.332;2023-09-30T01:16:10;10.25;;;3.55;;
65831;SDS011;52593;42.648;23.332;2023-09-30T01:18:36;8.43;;;3.27;;
65831;SDS011;52593;42.648;23.332;2023-09-30T01:21:04;7.78;;;3.10;;
65831;SDS011;52593;42.648;23.332;2023-09-30T01:23:31;9.20;;;3.50;;
65831;SDS011;52593;42.648;23.332;2023-09-30T01:26:00;9.13;;;3.60;;
65831;SDS011;52593;42.648;23.332;2023-09-30T01:28:37;11.27;;;3.30;;
65831;SDS011;52593;42.648;23.332;2023-09-30T01:31:03;9.57;;;3.20;;
65831;SDS011;52593;42.648;23.332;2023-09-30T01:33:29;9.45;;;3.80;;
65831;SDS011;52593;42.648;23.332;2023-09-30T01:35:55;6.85;;;3.10;;
65831;SDS011;52593;42.648;23.332;2023-09-30T01:38:21;10.53;;;3.40;;
65831;SDS011;52593;42.648;23.332;2023-09-30T01:40:47;10.15;;;3.70;;
65831;SDS011;52593;42.648;23.332;2023-09-30T01:43:15;8.87;;;3.50;;
65831;SDS011;52593;42.648;23.332;2023-09-30T01:45:41;7.03;;;3.47;;
65831;SDS011;52593;42.648;23.332;2023-09-30T01:48:07;10.50;;;3.58;;
65831;SDS011;52593;42.648;23.332;2023-09-30T01:50:36;8.15;;;3.25;;
65831;SDS011;52593;42.648;23.332;2023-09-30T01:53:05;8.25;;;3.30;;
65831;SDS011;52593;42.648;23.332;2023-09-30T01:55:32;9.60;;;3.33;;
65831;SDS011;52593;42.648;23.332;2023-09-30T01:57:58;8.95;;;3.92;;
65831;SDS011;52593;42.648;23.332;2023-09-30T02:00:24;10.50;;;4.03;;
65831;SDS011;52593;42.648;23.332;2023-09-30T02:02:49;9.85;;;4.07;;
65831;SDS011;52593;42.648;23.332;2023-09-30T02:05:15;7.43;;;3.47;;
65831;SDS011;52593;42.648;23.332;2023-09-30T02:07:40;10.17;;;3.30;;
65831;SDS011;52593;42.648;23.332;2023-09-30T02:10:07;8.25;;;3.05;;
65831;SDS011;52593;42.648;23.332;2023-09-30T02:12:33;9.63;;;3.42;;
65831;SDS011;52593;42.648;23.332;2023-09-30T02:14:59;7.47;;;3.17;;
65831;SDS011;52593;42.648;23.332;2023-09-30T02:17:24;9.70;;;3.65;;
65831;SDS011;52593;42.648;23.332;2023-09-30T02:19:50;9.97;;;3.93;;
65831;SDS011;52593;42.648;23.332;2023-09-30T02:22:15;7.27;;;3.47;;
65831;SDS011;52593;42.648;23.332;2023-09-30T02:24:41;8.83;;;3.60;;
65831;SDS011;52593;42.648;23.332;2023-09-30T02:27:06;9.87;;;3.60;;
65831;SDS011;52593;42.648;23.332;2023-09-30T02:29:31;8.73;;;3.53;;
65831;SDS011;52593;42.648;23.332;2023-09-30T02:31:57;8.90;;;3.50;;
65831;SDS011;52593;42.648;23.332;2023-09-30T02:34:23;8.93;;;3.67;;
65831;SDS011;52593;42.648;23.332;2023-09-30T02:36:49;9.10;;;3.50;;
65831;SDS011;52593;42.648;23.332;2023-09-30T02:39:15;7.97;;;3.63;;
65831;SDS011;52593;42.648;23.332;2023-09-30T02:41:41;7.65;;;3.55;;
65831;SDS011;52593;42.648;23.332;2023-09-30T02:44:07;7.40;;;3.47;;
65831;SDS011;52593;42.648;23.332;2023-09-30T02:46:33;7.73;;;3.53;;
65831;SDS011;52593;42.648;23.332;2023-09-30T02:49:00;8.33;;;3.77;;
65831;SDS011;52593;42.648;23.332;2023-09-30T02:51:26;8.15;;;3.50;;
65831;SDS011;52593;42.648;23.332;2023-09-30T02:53:51;9.47;;;3.43;;
65831;SDS011;52593;42.648;23.332;2023-09-30T02:56:17;8.95;;;4.25;;
65831;SDS011;52593;42.648;23.332;2023-09-30T02:58:45;12.15;;;3.80;;
65831;SDS011;52593;42.648;23.332;2023-09-30T03:01:13;9.75;;;3.53;;
65831;SDS011;52593;42.648;23.332;2023-09-30T03:03:41;10.53;;;3.67;;
65831;SDS011;52593;42.648;23.332;2023-09-30T03:06:09;8.93;;;3.60;;
65831;SDS011;52593;42.648;23.332;2023-09-30T03:08:35;8.57;;;3.67;;
65831;SDS011;52593;42.648;23.332;2023-09-30T03:11:01;7.83;;;3.40;;
65831;SDS011;52593;42.648;23.332;2023-09-30T03:13:27;8.02;;;3.20;;
65831;SDS011;52593;42.648;23.332;2023-09-30T03:15:52;7.97;;;3.03;;
65831;SDS011;52593;42.648;23.332;2023-09-30T03:18:17;13.25;;;3.72;;
65831;SDS011;52593;42.648;23.332;2023-09-30T03:20:47;8.90;;;3.60;;
65831;SDS011;52593;42.648;23.332;2023-09-30T03:23:15;8.38;;;3.20;;
65831;SDS011;52593;42.648;23.332;2023-09-30T03:25:41;7.70;;;3.50;;
65831;SDS011;52593;42.648;23.332;2023-09-30T03:28:07;7.00;;;3.43;;
65831;SDS011;52593;42.648;23.332;2023-09-30T03:30:32;9.25;;;3.67;;
65831;SDS011;52593;42.648;23.332;2023-09-30T03:32:58;9.50;;;3.63;;
65831;SDS011;52593;42.648;23.332;2023-09-30T03:35:23;9.00;;;3.53;;
65831;SDS011;52593;42.648;23.332;2023-09-30T03:37:49;8.68;;;3.47;;
65831;SDS011;52593;42.648;23.332;2023-09-30T03:40:15;8.93;;;3.40;;
65831;SDS011;52593;42.648;23.332;2023-09-30T03:42:44;10.85;;;3.97;;
65831;SDS011;52593;42.648;23.332;2023-09-30T03:45:11;11.63;;;3.83;;
65831;SDS011;52593;42.648;23.332;2023-09-30T03:47:39;8.75;;;3.83;;
65831;SDS011;52593;42.648;23.332;2023-09-30T03:50:05;8.60;;;3.60;;
65831;SDS011;52593;42.648;23.332;2023-09-30T03:52:37;8.73;;;3.38;;
65831;SDS011;52593;42.648;23.332;2023-09-30T03:55:04;9.15;;;3.83;;
65831;SDS011;52593;42.648;23.332;2023-09-30T03:57:31;8.90;;;4.13;;
65831;SDS011;52593;42.648;23.332;2023-09-30T03:59:58;9.55;;;3.90;;
65831;SDS011;52593;42.648;23.332;2023-09-30T04:02:25;9.65;;;3.35;;
65831;SDS011;52593;42.648;23.332;2023-09-30T04:04:50;9.30;;;3.80;;
65831;SDS011;52593;42.648;23.332;2023-09-30T04:07:19;9.68;;;3.35;;
65831;SDS011;52593;42.648;23.332;2023-09-30T04:09:46;9.50;;;3.95;;
65831;SDS011;52593;42.648;23.332;2023-09-30T04:12:12;11.02;;;3.88;;
65831;SDS011;52593;42.648;23.332;2023-09-30T04:14:38;9.07;;;3.53;;
65831;SDS011;52593;42.648;23.332;2023-09-30T04:17:04;9.43;;;3.88;;
65831;SDS011;52593;42.648;23.332;2023-09-30T04:19:30;11.00;;;4.10;;
65831;SDS011;52593;42.648;23.332;2023-09-30T04:21:55;10.80;;;4.13;;
65831;SDS011;52593;42.648;23.332;2023-09-30T04:24:21;13.07;;;4.22;;
65831;SDS011;52593;42.648;23.332;2023-09-30T04:26:47;11.00;;;4.10;;
65831;SDS011;52593;42.648;23.332;2023-09-30T04:29:15;10.13;;;4.38;;
65831;SDS011;52593;42.648;23.332;2023-09-30T04:31:40;10.07;;;4.00;;
65831;SDS011;52593;42.648;23.332;2023-09-30T04:34:07;9.75;;;3.90;;
65831;SDS011;52593;42.648;23.332;2023-09-30T04:36:33;11.70;;;4.13;;
65831;SDS011;52593;42.648;23.332;2023-09-30T04:39:01;8.90;;;4.18;;
65831;SDS011;52593;42.648;23.332;2023-09-30T04:41:27;10.02;;;4.10;;
65831;SDS011;52593;42.648;23.332;2023-09-30T04:43:53;9.03;;;3.87;;
65831;SDS011;52593;42.648;23.332;2023-09-30T04:46:18;10.57;;;3.70;;
65831;SDS011;52593;42.648;23.332;2023-09-30T04:48:45;12.60;;;4.00;;
65831;SDS011;52593;42.648;23.332;2023-09-30T04:51:13;8.25;;;3.85;;
65831;SDS011;52593;42.648;23.332;2023-09-30T04:53:41;8.50;;;3.60;;
65831;SDS011;52593;42.648;23.332;2023-09-30T04:56:07;9.33;;;3.80;;
65831;SDS011;52593;42.648;23.332;2023-09-30T04:58:32;9.47;;;3.87;;
65831;SDS011;52593;42.648;23.332;2023-09-30T05:00:58;9.40;;;3.90;;
65831;SDS011;52593;42.648;23.332;2023-09-30T05:03:23;9.67;;;3.83;;
65831;SDS011;52593;42.648;23.332;2023-09-30T05:05:50;12.80;;;3.85;;
65831;SDS011;52593;42.648;23.332;2023-09-30T05:08:18;11.30;;;4.30;;
65831;SDS011;52593;42.648;23.332;2023-09-30T05:10:44;9.98;;;3.88;;
65831;SDS011;52593;42.648;23.332;2023-09-30T05:13:11;10.15;;;4.28;;
65831;SDS011;52593;42.648;23.332;2023-09-30T05:15:37;9.15;;;3.95;;
65831;SDS011;52593;42.648;23.332;2023-09-30T05:18:03;9.90;;;4.17;;
65831;SDS011;52593;42.648;23.332;2023-09-30T05:20:30;10.67;;;4.53;;
65831;SDS011;52593;42.648;23.332;2023-09-30T05:22:55;9.10;;;4.20;;
65831;SDS011;52593;42.648;23.332;2023-09-30T05:25:21;8.47;;;4.10;;
65831;SDS011;52593;42.648;23.332;2023-09-30T05:27:51;11.95;;;4.13;;
65831;SDS011;52593;42.648;23.332;2023-09-30T05:30:17;12.53;;;4.50;;
65831;SDS011;52593;42.648;23.332;2023-09-30T05:32:45;10.63;;;4.43;;
65831;SDS011;52593;42.648;23.332;2023-09-30T05:35:11;11.23;;;4.50;;
65831;SDS011;52593;42.648;23.332;2023-09-30T05:37:44;12.57;;;4.57;;
65831;SDS011;52593;42.648;23.332;2023-09-30T05:40:12;9.83;;;4.30;;
65831;SDS011;52593;42.648;23.332;2023-09-30T05:42:50;9.45;;;4.38;;
65831;SDS011;52593;42.648;23.332;2023-09-30T05:45:16;9.95;;;4.60;;
65831;SDS011;52593;42.648;23.332;2023-09-30T05:47:42;11.43;;;4.10;;
65831;SDS011;52593;42.648;23.332;2023-09-30T05:50:09;10.13;;;4.50;;
65831;SDS011;52593;42.648;23.332;2023-09-30T05:52:39;10.88;;;4.43;;
65831;SDS011;52593;42.648;23.332;2023-09-30T05:55:05;10.05;;;4.30;;
65831;SDS011;52593;42.648;23.332;2023-09-30T05:57:31;12.10;;;4.50;;
65831;SDS011;52593;42.648;23.332;2023-09-30T05:59:57;13.33;;;5.20;;
65831;SDS011;52593;42.648;23.332;2023-09-30T06:02:23;11.55;;;4.15;;
65831;SDS011;52593;42.648;23.332;2023-09-30T06:04:48;14.23;;;4.90;;
65831;SDS011;52593;42.648;23.332;2023-09-30T06:07:16;10.00;;;4.50;;
65831;SDS011;52593;42.648;23.332;2023-09-30T06:09:43;14.27;;;5.40;;
65831;SDS011;52593;42.648;23.332;2023-09-30T06:12:08;10.80;;;4.80;;
65831;SDS011;52593;42.648;23.332;2023-09-30T06:14:36;11.17;;;4.93;;
65831;SDS011;52593;42.648;23.332;2023-09-30T06:17:02;10.93;;;4.60;;
65831;SDS011;52593;42.648;23.332;2023-09-30T06:19:27;11.23;;;4.90;;
65831;SDS011;52593;42.648;23.332;2023-09-30T06:21:53;9.73;;;4.70;;
65831;SDS011;52593;42.648;23.332;2023-09-30T06:24:18;9.90;;;4.73;;
65831;SDS011;52593;42.648;23.332;2023-09-30T06:26:47;11.90;;;4.28;;
65831;SDS011;52593;42.648;23.332;2023-09-30T06:29:14;14.50;;;4.47;;
65831;SDS011;52593;42.648;23.332;2023-09-30T06:31:39;11.77;;;4.90;;
65831;SDS011;52593;42.648;23.332;2023-09-30T06:34:05;10.07;;;4.60;;
65831;SDS011;52593;42.648;23.332;2023-09-30T06:36:32;10.25;;;4.30;;
65831;SDS011;52593;42.648;23.332;2023-09-30T06:38:57;14.80;;;4.50;;
65831;SDS011;52593;42.648;23.332;2023-09-30T06:41:24;12.38;;;4.80;;
65831;SDS011;52593;42.648;23.332;2023-09-30T06:43:50;9.80;;;4.10;;
65831;SDS011;52593;42.648;23.332;2023-09-30T06:46:16;9.85;;;4.50;;
65831;SDS011;52593;42.648;23.332;2023-09-30T06:48:42;11.20;;;4.10;;
65831;SDS011;52593;42.648;23.332;2023-09-30T06:51:12;10.00;;;3.80;;
65831;SDS011;52593;42.648;23.332;2023-09-30T06:53:42;8.73;;;3.60;;
65831;SDS011;52593;42.648;23.332;2023-09-30T06:56:07;8.67;;;3.63;;
65831;SDS011;52593;42.648;23.332;2023-09-30T06:58:33;11.50;;;4.30;;
65831;SDS011;52593;42.648;23.332;2023-09-30T07:00:58;9.40;;;3.22;;
65831;SDS011;52593;42.648;23.332;2023-09-30T07:03:24;8.00;;;3.00;;
65831;SDS011;52593;42.648;23.332;2023-09-30T07:05:49;7.40;;;3.07;;
65831;SDS011;52593;42.648;23.332;2023-09-30T07:08:18;9.02;;;3.05;;
65831;SDS011;52593;42.648;23.332;2023-09-30T07:10:44;8.07;;;2.90;;
65831;SDS011;52593;42.648;23.332;2023-09-30T07:13:11;7.33;;;2.63;;
65831;SDS011;52593;42.648;23.332;2023-09-30T07:15:37;7.40;;;2.80;;
65831;SDS011;52593;42.648;23.332;2023-09-30T07:18:03;6.90;;;2.87;;
65831;SDS011;52593;42.648;23.332;2023-09-30T07:20:28;9.30;;;3.10;;
65831;SDS011;52593;42.648;23.332;2023-09-30T07:22:58;7.22;;;2.90;;
65831;SDS011;52593;42.648;23.332;2023-09-30T07:25:26;8.23;;;3.03;;
65831;SDS011;52593;42.648;23.332;2023-09-30T07:27:52;7.55;;;2.92;;
65831;SDS011;52593;42.648;23.332;2023-09-30T07:30:17;7.87;;;2.97;;
65831;SDS011;52593;42.648;23.332;2023-09-30T07:32:44;6.72;;;3.03;;
65831;SDS011;52593;42.648;23.332;2023-09-30T07:35:10;7.43;;;2.67;;
65831;SDS011;52593;42.648;23.332;2023-09-30T07:37:37;9.82;;;2.80;;
65831;SDS011;52593;42.648;23.332;2023-09-30T07:40:02;7.87;;;3.30;;
65831;SDS011;52593;42.648;23.332;2023-09-30T07:42:28;7.13;;;2.73;;
65831;SDS011;52593;42.648;23.332;2023-09-30T07:44:53;9.47;;;2.90;;
65831;SDS011;52593;42.648;23.332;2023-09-30T07:47:19;9.77;;;3.20;;
65831;SDS011;52593;42.648;23.332;2023-09-30T07:49:44;7.40;;;3.00;;
65831;SDS011;52593;42.648;23.332;2023-09-30T07:52:10;8.73;;;3.33;;
65831;SDS011;52593;42.648;23.332;2023-09-30T07:54:36;6.17;;;2.70;;
65831;SDS011;52593;42.648;23.332;2023-09-30T07:57:01;6.15;;;2.65;;
65831;SDS011;52593;42.648;23.332;2023-09-30T07:59:27;10.03;;;4.13;;
65831;SDS011;52593;42.648;23.332;2023-09-30T08:01:52;6.37;;;2.90;;
65831;SDS011;52593;42.648;23.332;2023-09-30T08:04:18;6.35;;;2.35;;
65831;SDS011;52593;42.648;23.332;2023-09-30T08:06:44;6.03;;;2.70;;
65831;SDS011;52593;42.648;23.332;2023-09-30T08:09:10;6.55;;;2.50;;
65831;SDS011;52593;42.648;23.332;2023-09-30T08:11:38;7.22;;;2.58;;
65831;SDS011;52593;42.648;23.332;2023-09-30T08:14:04;7.03;;;2.60;;
65831;SDS011;52593;42.648;23.332;2023-09-30T08:16:34;7.07;;;2.75;;
65831;SDS011;52593;42.648;23.332;2023-09-30T08:19:00;9.23;;;2.80;;
65831;SDS011;52593;42.648;23.332;2023-09-30T08:21:25;6.87;;;2.73;;
65831;SDS011;52593;42.648;23.332;2023-09-30T08:23:51;8.00;;;3.17;;
65831;SDS011;52593;42.648;23.332;2023-09-30T08:26:16;7.53;;;3.20;;
65831;SDS011;52593;42.648;23.332;2023-09-30T08:28:42;8.60;;;2.70;;
65831;SDS011;52593;42.648;23.332;2023-09-30T08:31:07;7.07;;;3.17;;
65831;SDS011;52593;42.648;23.332;2023-09-30T08:33:34;9.32;;;3.67;;
65831;SDS011;52593;42.648;23.332;2023-09-30T08:36:04;8.37;;;3.37;;
65831;SDS011;52593;42.648;23.332;2023-09-30T08:38:33;8.90;;;3.45;;
65831;SDS011;52593;42.648;23.332;2023-09-30T08:41:02;8.60;;;3.70;;
65831;SDS011;52593;42.648;23.332;2023-09-30T08:43:28;8.02;;;3.45;;
65831;SDS011;52593;42.648;23.332;2023-09-30T08:45:57;9.18;;;3.55;;
65831;SDS011;52593;42.648;23.332;2023-09-30T08:48:25;7.50;;;3.30;;
65831;SDS011;52593;42.648;23.332;2023-09-30T08:50:52;7.22;;;3.50;;
65831;SDS011;52593;42.648;23.332;2023-09-30T08:53:22;9.98;;;4.03;;
65831;SDS011;52593;42.648;23.332;2023-09-30T08:55:49;8.90;;;4.05;;
65831;SDS011;52593;42.648;23.332;2023-09-30T08:58:19;9.70;;;4.10;;
65831;SDS011;52593;42.648;23.332;2023-09-30T09:00:47;11.50;;;4.20;;
65831;SDS011;52593;42.648;23.332;2023-09-30T09:03:13;10.38;;;4.30;;
65831;SDS011;52593;42.648;23.332;2023-09-30T09:05:39;9.38;;;4.18;;
65831;SDS011;52593;42.648;23.332;2023-09-30T09:08:05;9.43;;;4.95;;
65831;SDS011;52593;42.648;23.332;2023-09-30T09:10:31;10.03;;;4.93;;
65831;SDS011;52593;42.648;23.332;2023-09-30T09:12:57;9.67;;;4.63;;
65831;SDS011;52593;42.648;23.332;2023-09-30T09:15:27;9.85;;;5.32;;
65831;SDS011;52593;42.648;23.332;2023-09-30T09:17:53;8.88;;;4.43;;
65831;SDS011;52593;42.648;23.332;2023-09-30T09:20:23;11.38;;;5.00;;
65831;SDS011;52593;42.648;23.332;2023-09-30T09:22:54;9.63;;;4.57;;
65831;SDS011;52593;42.648;23.332;2023-09-30T09:25:21;10.02;;;4.95;;
65831;SDS011;52593;42.648;23.332;2023-09-30T09:27:48;9.40;;;4.82;;
65831;SDS011;52593;42.648;23.332;2023-09-30T09:35:29;8.83;;;4.27;;
65831;SDS011;52593;42.648;23.332;2023-09-30T09:40:25;10.25;;;4.68;;
65831;SDS011;52593;42.648;23.332;2023-09-30T09:42:55;7.97;;;4.18;;
65831;SDS011;52593;42.648;23.332;2023-09-30T09:45:22;10.95;;;4.40;;
65831;SDS011;52593;42.648;23.332;2023-09-30T09:47:51;8.37;;;4.37;;
65831;SDS011;52593;42.648;23.332;2023-09-30T09:50:18;8.43;;;3.83;;
65831;SDS011;52593;42.648;23.332;2023-09-30T09:52:48;8.55;;;4.03;;
65831;SDS011;52593;42.648;23.332;2023-09-30T09:55:18;9.23;;;3.90;;
65831;SDS011;52593;42.648;23.332;2023-09-30T09:57:45;9.52;;;4.05;;
65831;SDS011;52593;42.648;23.332;2023-09-30T10:00:11;7.30;;;3.43;;
65831;SDS011;52593;42.648;23.332;2023-09-30T10:02:47;7.95;;;3.53;;
65831;SDS011;52593;42.648;23.332;2023-09-30T10:05:13;8.43;;;3.40;;
65831;SDS011;52593;42.648;23.332;2023-09-30T10:07:53;6.38;;;2.90;;
65831;SDS011;52593;42.648;23.332;2023-09-30T10:10:24;9.15;;;3.63;;
65831;SDS011;52593;42.648;23.332;2023-09-30T10:12:50;10.40;;;3.20;;
65831;SDS011;52593;42.648;23.332;2023-09-30T10:18:00;7.38;;;2.88;;
65831;SDS011;52593;42.648;23.332;2023-09-30T10:20:29;7.50;;;3.07;;
65831;SDS011;52593;42.648;23.332;2023-09-30T10:25:44;7.88;;;3.30;;
65831;SDS011;52593;42.648;23.332;2023-09-30T10:36:32;6.72;;;3.10;;
65831;SDS011;52593;42.648;23.332;2023-09-30T10:38:59;5.38;;;2.45;;
65831;SDS011;52593;42.648;23.332;2023-09-30T10:46:50;6.47;;;2.40;;
65831;SDS011;52593;42.648;23.332;2023-09-30T10:49:21;5.97;;;2.45;;
65831;SDS011;52593;42.648;23.332;2023-09-30T10:51:59;6.05;;;2.80;;
65831;SDS011;52593;42.648;23.332;2023-09-30T10:54:28;5.93;;;2.22;;
65831;SDS011;52593;42.648;23.332;2023-09-30T10:56:56;6.45;;;2.00;;
65831;SDS011;52593;42.648;23.332;2023-09-30T10:59:27;6.57;;;2.50;;
65831;SDS011;52593;42.648;23.332;2023-09-30T11:01:55;5.18;;;2.03;;
65831;SDS011;52593;42.648;23.332;2023-09-30T11:04:21;5.40;;;1.92;;
65831;SDS011;52593;42.648;23.332;2023-09-30T11:06:47;10.32;;;2.47;;
65831;SDS011;52593;42.648;23.332;2023-09-30T11:09:16;6.30;;;2.97;;
65831;SDS011;52593;42.648;23.332;2023-09-30T11:11:43;5.53;;;2.10;;
65831;SDS011;52593;42.648;23.332;2023-09-30T11:14:25;6.07;;;2.40;;
65831;SDS011;52593;42.648;23.332;2023-09-30T11:16:59;6.88;;;2.30;;
65831;SDS011;52593;42.648;23.332;2023-09-30T11:19:27;5.40;;;1.92;;
65831;SDS011;52593;42.648;23.332;2023-09-30T11:21:59;6.80;;;2.17;;
65831;SDS011;52593;42.648;23.332;2023-09-30T11:24:24;5.50;;;2.07;;
65831;SDS011;52593;42.648;23.332;2023-09-30T11:26:53;5.40;;;2.13;;
65831;SDS011;52593;42.648;23.332;2023-09-30T11:29:20;5.55;;;2.22;;
65831;SDS011;52593;42.648;23.332;2023-09-30T11:31:49;5.47;;;2.10;;
65831;SDS011;52593;42.648;23.332;2023-09-30T11:34:16;5.55;;;2.22;;
65831;SDS011;52593;42.648;23.332;2023-09-30T11:36:52;4.67;;;2.07;;
65831;SDS011;52593;42.648;23.332;2023-09-30T11:39:25;5.78;;;2.63;;
65831;SDS011;52593;42.648;23.332;2023-09-30T11:41:52;6.18;;;2.20;;
65831;SDS011;52593;42.648;23.332;2023-09-30T11:44:20;5.68;;;2.55;;
65831;SDS011;52593;42.648;23.332;2023-09-30T11:46:52;5.60;;;2.57;;
65831;SDS011;52593;42.648;23.332;2023-09-30T11:49:28;5.28;;;2.38;;
65831;SDS011;52593;42.648;23.332;2023-09-30T11:51:57;7.82;;;2.72;;
65831;SDS011;52593;42.648;23.332;2023-09-30T11:54:49;6.50;;;2.75;;
65831;SDS011;52593;42.648;23.332;2023-09-30T11:57:14;6.80;;;2.30;;
65831;SDS011;52593;42.648;23.332;2023-09-30T11:59:40;5.80;;;2.63;;
65831;SDS011;52593;42.648;23.332;2023-09-30T12:02:07;6.97;;;2.72;;
65831;SDS011;52593;42.648;23.332;2023-09-30T12:04:34;7.28;;;2.88;;
65831;SDS011;52593;42.648;23.332;2023-09-30T12:06:59;7.75;;;2.92;;
65831;SDS011;52593;42.648;23.332;2023-09-30T12:09:25;5.77;;;2.73;;
65831;SDS011;52593;42.648;23.332;2023-09-30T12:11:53;6.32;;;2.90;;
65831;SDS011;52593;42.648;23.332;2023-09-30T12:14:20;6.07;;;2.60;;
65831;SDS011;52593;42.648;23.332;2023-09-30T12:16:46;7.07;;;2.90;;
65831;SDS011;52593;42.648;23.332;2023-09-30T12:19:15;7.55;;;2.88;;
65831;SDS011;52593;42.648;23.332;2023-09-30T12:21:41;6.30;;;3.10;;
65831;SDS011;52593;42.648;23.332;2023-09-30T12:24:07;7.25;;;3.30;;
65831;SDS011;52593;42.648;23.332;2023-09-30T12:26:34;6.13;;;2.85;;
65831;SDS011;52593;42.648;23.332;2023-09-30T12:29:01;5.83;;;2.80;;
65831;SDS011;52593;42.648;23.332;2023-09-30T12:31:27;6.28;;;2.80;;
65831;SDS011;52593;42.648;23.332;2023-09-30T12:33:52;6.60;;;2.90;;
65831;SDS011;52593;42.648;23.332;2023-09-30T12:36:18;6.70;;;2.47;;
65831;SDS011;52593;42.648;23.332;2023-09-30T12:38:44;5.65;;;2.75;;
65831;SDS011;52593;42.648;23.332;2023-09-30T12:41:10;6.67;;;2.80;;
65831;SDS011;52593;42.648;23.332;2023-09-30T12:43:36;5.38;;;2.80;;
65831;SDS011;52593;42.648;23.332;2023-09-30T12:46:02;7.53;;;2.80;;
65831;SDS011;52593;42.648;23.332;2023-09-30T12:48:29;6.03;;;2.83;;
65831;SDS011;52593;42.648;23.332;2023-09-30T12:50:55;6.50;;;2.83;;
65831;SDS011;52593;42.648;23.332;2023-09-30T12:53:21;7.23;;;2.67;;
65831;SDS011;52593;42.648;23.332;2023-09-30T12:55:46;6.45;;;2.78;;
65831;SDS011;52593;42.648;23.332;2023-09-30T12:58:11;6.70;;;2.70;;
65831;SDS011;52593;42.648;23.332;2023-09-30T13:00:37;6.60;;;3.00;;
65831;SDS011;52593;42.648;23.332;2023-09-30T13:03:03;7.17;;;2.80;;
65831;SDS011;52593;42.648;23.332;2023-09-30T13:05:28;8.43;;;3.13;;
65831;SDS011;52593;42.648;23.332;2023-09-30T13:07:54;6.60;;;2.70;;
65831;SDS011;52593;42.648;23.332;2023-09-30T13:10:20;8.27;;;3.22;;
65831;SDS011;52593;42.648;23.332;2023-09-30T13:12:47;6.60;;;3.00;;
65831;SDS011;52593;42.648;23.332;2023-09-30T13:15:14;7.05;;;2.83;;
65831;SDS011;52593;42.648;23.332;2023-09-30T13:17:40;7.03;;;3.42;;
65831;SDS011;52593;42.648;23.332;2023-09-30T13:20:07;8.05;;;3.05;;
65831;SDS011;52593;42.648;23.332;2023-09-30T13:22:34;7.00;;;3.10;;
65831;SDS011;52593;42.648;23.332;2023-09-30T13:25:03;5.10;;;2.70;;
65831;SDS011;52593;42.648;23.332;2023-09-30T13:27:30;6.28;;;2.90;;
65831;SDS011;52593;42.648;23.332;2023-09-30T13:29:56;6.57;;;3.50;;
65831;SDS011;52593;42.648;23.332;2023-09-30T13:32:23;5.95;;;3.15;;
65831;SDS011;52593;42.648;23.332;2023-09-30T13:34:50;6.40;;;3.17;;
65831;SDS011;52593;42.648;23.332;2023-09-30T13:37:16;6.53;;;3.10;;
65831;SDS011;52593;42.648;23.332;2023-09-30T13:39:41;6.85;;;3.20;;
65831;SDS011;52593;42.648;23.332;2023-09-30T13:42:07;5.30;;;2.87;;
65831;SDS011;52593;42.648;23.332;2023-09-30T13:44:33;6.10;;;3.23;;
65831;SDS011;52593;42.648;23.332;2023-09-30T13:46:58;5.60;;;3.10;;
65831;SDS011;52593;42.648;23.332;2023-09-30T13:49:23;5.93;;;3.50;;
65831;SDS011;52593;42.648;23.332;2023-09-30T13:51:50;6.60;;;3.45;;
65831;SDS011;52593;42.648;23.332;2023-09-30T13:54:15;6.63;;;3.30;;
65831;SDS011;52593;42.648;23.332;2023-09-30T13:56:40;7.22;;;3.40;;
65831;SDS011;52593;42.648;23.332;2023-09-30T13:59:07;6.53;;;3.40;;
65831;SDS011;52593;42.648;23.332;2023-09-30T14:01:32;7.95;;;3.40;;
65831;SDS011;52593;42.648;23.332;2023-09-30T14:03:58;6.47;;;3.97;;
65831;SDS011;52593;42.648;23.332;2023-09-30T14:06:23;6.32;;;3.15;;
65831;SDS011;52593;42.648;23.332;2023-09-30T14:08:49;6.07;;;3.17;;
65831;SDS011;52593;42.648;23.332;2023-09-30T14:11:15;6.28;;;3.53;;
65831;SDS011;52593;42.648;23.332;2023-09-30T14:13:40;7.30;;;3.30;;
65831;SDS011;52593;42.648;23.332;2023-09-30T14:16:06;6.70;;;3.47;;
65831;SDS011;52593;42.648;23.332;2023-09-30T14:18:32;6.95;;;3.63;;
65831;SDS011;52593;42.648;23.332;2023-09-30T14:20:58;6.57;;;3.70;;
65831;SDS011;52593;42.648;23.332;2023-09-30T14:23:24;6.63;;;3.47;;
65831;SDS011;52593;42.648;23.332;2023-09-30T14:25:50;6.18;;;3.30;;
65831;SDS011;52593;42.648;23.332;2023-09-30T14:28:19;8.50;;;3.30;;
65831;SDS011;52593;42.648;23.332;2023-09-30T14:30:45;5.73;;;2.87;;
65831;SDS011;52593;42.648;23.332;2023-09-30T14:33:10;6.03;;;3.10;;
65831;SDS011;52593;42.648;23.332;2023-09-30T14:35:36;7.50;;;3.20;;
65831;SDS011;52593;42.648;23.332;2023-09-30T14:38:04;6.87;;;2.77;;
65831;SDS011;52593;42.648;23.332;2023-09-30T14:40:32;10.25;;;3.55;;
65831;SDS011;52593;42.648;23.332;2023-09-30T14:43:01;6.50;;;2.60;;
65831;SDS011;52593;42.648;23.332;2023-09-30T14:45:30;5.75;;;2.70;;
65831;SDS011;52593;42.648;23.332;2023-09-30T14:47:56;7.43;;;2.55;;
65831;SDS011;52593;42.648;23.332;2023-09-30T14:50:21;6.13;;;2.70;;
65831;SDS011;52593;42.648;23.332;2023-09-30T14:52:47;5.57;;;2.47;;
65831;SDS011;52593;42.648;23.332;2023-09-30T14:55:12;6.60;;;2.90;;